Terminal Aerodrome Forecast
Issued by NWS

Home | Current Version | Previous Version | Text Only | Print | Product List | Glossary On
Versions: 1 2 3 4 5 6 7 8 9 10 11 12 13
426
FTUS45 KRIW 060520
TAFCOD
TAF
KCOD 060520Z 0606/0706 25020G32KT P6SM SCT100 BKN200
     FM061800 25012G20KT P6SM SCT080 BKN150
     FM070200 25011KT P6SM SCT100
      AMD LTD TO CLD VIS AND WIND=

USA.gov is the U.S. government's official web portal to all federal, state and local government web resources and services.